Flight Track Log - Related Links

Times and Time Zones

All times are in EDT time to prevent confusion due to time zone crossing. See the ASQ4625 flight status page for this flight to view local times or setup timezone preferences in your user account.

Time Position Orientation Groundspeed Altitude Reporting Facility
EDT Latitude Longitude Course Direction KTS MPH feet Rate Location/Type
Sun 08:09:09 AM 26.6114 -81.7147 343° North 180 207 3,300  Level Miami Center
Sun 08:10:09 AM 26.6822 -81.7200 356° North 210 242 5,500 2,600 Climbing Miami Center
Sun 08:11:09 AM 26.7572 -81.7256 356° North 247 284 8,500 2,500 Climbing Miami Center
Sun 08:12:09 AM 26.8322 -81.7333 355° North 262 302 10,500 1,650 Climbing Miami Center
Sun 08:13:09 AM 26.9236 -81.7417 355° North 298 343 11,800 1,900 Climbing Miami Center
Sun 08:14:00 AM 27.1800 -81.7878 343° North  Level FlightAware Approximate
Sun 08:14:09 AM 27.0153 -81.7478 357° North 317 365 14,300  Level Miami Center
Sun 08:15:09 AM 27.1022 -81.7725 346° North 323 372 16,600 2,150 Climbing Miami Center
Sun 08:16:09 AM 27.1847 -81.7972 345° North 316 364 18,600 1,950 Climbing Miami Center
Sun 08:17:09 AM 27.2675 -81.8239 344° North 305 351 20,500 1,600 Climbing Miami Center
Sun 08:18:09 AM 27.3436 -81.8506 343° North 311 358 21,800 1,250 Climbing Miami Center
Sun 08:19:09 AM 27.4344 -81.8825 343° North 324 373 23,000 1,300 Climbing Miami Center
Sun 08:20:09 AM 27.5353 -81.9197 342° North 338 389 24,400 1,400 Climbing Miami Center
Sun 08:21:09 AM 27.6344 -81.9547 343° North 352 405 25,800 1,655 Climbing Miami Center
Sun 08:23:03 AM 27.8172 -82.0103 345° North 363 418 29,200 1,552 Climbing Jacksonville Center
Sun 08:24:03 AM 27.9133 -82.0119 359° North 355 409 30,300 1,200 Climbing Jacksonville Center
Sun 08:25:03 AM 28.0094 -82.0322 349° North 349 402 31,600 1,300 Climbing Jacksonville Center
Sun 08:26:03 AM 28.0953 -82.0714 338° Northwest 337 388 32,900 1,150 Climbing Jacksonville Center
Sun 08:27:03 AM 28.1850 -82.1083 340° North 337 388 33,900 550 Climbing Jacksonville Center
Sun 08:28:03 AM 28.2814 -82.1453 341° North 345 397 34,000 50 Climbing Jacksonville Center
Sun 08:29:03 AM 28.3839 -82.1872 340° North 368 423 34,000  Level Jacksonville Center
Sun 08:30:03 AM 28.4925 -82.2311 340° North 396 456 34,000  Level Jacksonville Center
Sun 08:31:03 AM 28.6033 -82.2756 341° North 410 472 34,000  Level Jacksonville Center
Sun 08:32:03 AM 28.7164 -82.3197 341° North 420 483 34,000  Level Jacksonville Center
Sun 08:33:03 AM 28.8208 -82.3594 342° North 410 472 34,000  Level Jacksonville Center
Sun 08:34:03 AM 28.9317 -82.4061 340° North 410 472 34,000  Level Jacksonville Center
Sun 08:35:03 AM 29.0403 -82.4508 340° North 410 472 34,000  Level Jacksonville Center
Sun 08:36:03 AM 29.1489 -82.4956 340° North 410 472 34,000  Level Jacksonville Center
Sun 08:37:03 AM 29.2619 -82.5403 341° North 410 472 34,000  Level Jacksonville Center
Sun 08:38:03 AM 29.3706 -82.5828 341° North 410 472 34,000  Level Jacksonville Center
Sun 08:39:03 AM 29.4894 -82.6039 351° North 410 472 34,000 400 Level Jacksonville Center
Sun 08:40:03 AM 29.6128 -82.5964 North 427 491 34,800 500 Climbing Jacksonville Center
Sun 08:41:03 AM 29.7381 -82.5889 North 438 504 35,000 100 Climbing Jacksonville Center
Sun 08:42:03 AM 29.8653 -82.5836 North 443 510 35,000  Level Jacksonville Center
Sun 08:43:03 AM 29.9883 -82.5761 North 443 510 35,000  Level Jacksonville Center
Sun 08:44:03 AM 30.1011 -82.5781 359° North 443 510 35,000  Level Jacksonville Center
Sun 08:45:03 AM 30.2244 -82.5706 North 443 510 35,000  Level Jacksonville Center
Sun 08:46:03 AM 30.3581 -82.5628 North 438 504 35,000  Level Jacksonville Center
Sun 08:47:03 AM 30.4833 -82.5550 North 438 504 35,000  Level Jacksonville Center
Sun 08:48:03 AM 30.6086 -82.5522 North 438 504 35,000  Level Jacksonville Center
Sun 08:49:03 AM 30.7317 -82.5469 North 438 504 35,000  Level Jacksonville Center
Sun 08:50:03 AM 30.8547 -82.5392 North 443 510 35,000  Level Jacksonville Center
Sun 08:51:03 AM 30.9800 -82.5339 North 438 504 35,000  Level Jacksonville Center
Sun 08:52:03 AM 31.1053 -82.5286 North 438 504 35,000  Level Jacksonville Center
Sun 08:53:03 AM 31.2286 -82.5233 North 438 504 35,000  Level Jacksonville Center
Sun 08:54:03 AM 31.3497 -82.5228 360° North 438 504 35,000  Level Jacksonville Center
Sun 08:55:03 AM 31.4769 -82.5100 North 443 510 35,000  Level Jacksonville Center
Sun 08:57:10 AM 31.7283 -82.4811 North 445 512 35,000  Level Atlanta Center
Sun 08:58:10 AM 31.8533 -82.4594 North 451 519 35,000  Level Atlanta Center
Sun 08:59:10 AM 31.9806 -82.4400 North 451 519 35,000  Level Atlanta Center
Sun 09:00:10 AM 32.1053 -82.4206 North 451 519 35,000  Level Atlanta Center
Sun 09:01:10 AM 32.2303 -82.4011 North 451 519 35,000  Level Atlanta Center
Sun 09:02:10 AM 32.3531 -82.3767 10° North 445 512 35,000  Level Atlanta Center
Sun 09:03:10 AM 32.4761 -82.3572 North 445 512 35,000  Level Atlanta Center
Sun 09:04:10 AM 32.6031 -82.3375 North 445 512 35,000  Level Atlanta Center
Sun 09:05:10 AM 32.7281 -82.3203 North 445 512 35,000  Level Atlanta Center
Sun 09:06:10 AM 32.8511 -82.3006 North 445 512 35,000  Level Atlanta Center
Sun 09:07:10 AM 32.9717 -82.2808 North 445 512 35,000  Level Atlanta Center
Sun 09:08:10 AM 33.1133 -82.2581 North 452 520 35,000  Level Atlanta Center
Sun 09:09:10 AM 33.2364 -82.2383 North 447 514 35,000  Level Atlanta Center
Sun 09:10:10 AM 33.3611 -82.2183 North 447 514 35,000  Level Atlanta Center
Sun 09:11:10 AM 33.4819 -82.1983 North 442 509 35,000  Level Atlanta Center
Sun 09:12:10 AM 33.6047 -82.1781 North 447 514 35,000  Level Atlanta Center
Sun 09:13:10 AM 33.7317 -82.1556 North 447 514 35,000  Level Atlanta Center
Sun 09:14:10 AM 33.8547 -82.1353 North 447 514 35,000  Level Atlanta Center
Sun 09:15:10 AM 33.9775 -82.1150 North 442 509 35,000  Level Atlanta Center
Sun 09:16:10 AM 34.0900 -82.0972 North 448 516 35,000  Level Atlanta Center
Sun 09:17:10 AM 34.2147 -82.0719 10° North 448 516 35,000  Level Atlanta Center
Sun 09:18:10 AM 34.3417 -82.0489 North 448 516 35,000  Level Atlanta Center
Sun 09:19:10 AM 34.4644 -82.0283 North 443 510 35,000  Level Atlanta Center
Sun 09:20:10 AM 34.5894 -82.0075 North 448 516 35,000  Level Atlanta Center
Sun 09:21:10 AM 34.7164 -81.9869 North 443 510 35,000  Level Atlanta Center
Sun 09:22:10 AM 34.8369 -81.9611 10° North 443 510 35,000  Level Atlanta Center
Sun 09:23:10 AM 34.9764 -81.9425 North 448 516 35,000  Level Atlanta Center
Sun 09:24:10 AM 35.1014 -81.9292 North 448 516 35,000  Level Atlanta Center
Sun 09:25:10 AM 35.2119 -81.9239 North 442 509 35,000  Level Atlanta Center
Sun 09:26:10 AM 35.3347 -81.9156 North 442 509 35,000  Level Atlanta Center
Sun 09:27:10 AM 35.4578 -81.9097 North 442 509 35,000  Level Atlanta Center
Sun 09:28:10 AM 35.5808 -81.9067 North 442 509 35,000  Level Atlanta Center
Sun 09:29:10 AM 35.7122 -81.8981 North 432 497 35,000  Level Atlanta Center
Sun 09:30:10 AM 35.8289 -81.8925 North 427 491 35,000  Level Atlanta Center
Sun 09:31:10 AM 35.9456 -81.8867 North 421 484 35,000  Level Atlanta Center
Sun 09:32:10 AM 36.0622 -81.8836 North 421 484 35,000  Level Atlanta Center
Sun 09:33:10 AM 36.1811 -81.8778 North 420 483 35,000  Level Atlanta Center
Sun 09:34:10 AM 36.3019 -81.8694 North 420 483 35,000  Level Atlanta Center
Sun 09:36:34 AM 36.5750 -81.8558 North 438 504 35,000  Level Indianapolis Center
Sun 09:37:36 AM 36.6994 -81.8503 North 445 512 35,000  Level Indianapolis Center
Sun 09:38:37 AM 36.8458 -81.8428 North 448 516 35,000  Level Indianapolis Center
Sun 09:39:39 AM 36.9767 -81.8372 North 461 531 35,000  Level Indianapolis Center
Sun 09:40:41 AM 37.1022 -81.8444 357° North 454 522 35,000  Level Indianapolis Center
Sun 09:41:42 AM 37.2253 -81.8542 356° North 445 512 35,000  Level Indianapolis Center
Sun 09:42:44 AM 37.3483 -81.8647 356° North 443 510 35,000  Level Indianapolis Center
Sun 09:43:45 AM 37.4694 -81.8744 356° North 438 504 35,000  Level Indianapolis Center
Sun 09:44:47 AM 37.6081 -81.8861 356° North 429 494 35,000  Level Indianapolis Center
Sun 09:45:49 AM 37.7267 -81.8967 356° North 426 490 35,000  Level Indianapolis Center
Sun 09:46:50 AM 37.8403 -81.9050 357° North 425 489 35,000 -49 Level Indianapolis Center
Sun 09:47:52 AM 37.9581 -81.9147 356° North 425 489 34,900 -290 Descending Indianapolis Center
Sun 09:48:54 AM 38.0753 -81.9247 356° North 419 482 34,400 -435 Descending Indianapolis Center
Sun 09:49:56 AM 38.1900 -81.9336 357° North 414 476 34,000 -195 Descending Indianapolis Center
Sun 09:50:57 AM 38.3069 -81.9439 356° North 417 480 34,000  Level Indianapolis Center
Sun 09:51:59 AM 38.4267 -81.9531 357° North 424 488 34,000  Level Indianapolis Center
Sun 09:53:01 AM 38.5739 -81.9658 356° North 434 499 34,000  Level Indianapolis Center
Sun 09:54:03 AM 38.6975 -81.9761 356° North 439 505 34,000  Level Indianapolis Center
Sun 09:55:04 AM 38.8222 -81.9856 357° North 442 509 34,000  Level Indianapolis Center
Sun 09:56:06 AM 38.9447 -81.9975 356° North 437 503 34,000  Level Indianapolis Center
Sun 09:57:08 AM 39.0686 -82.0067 357° North 442 509 34,000  Level Indianapolis Center
Sun 09:58:10 AM 39.1911 -82.0169 356° North 439 505 34,000 -290 Level Indianapolis Center
Sun 09:59:12 AM 39.3142 -82.0281 356° North 441 507 33,400 -780 Descending Indianapolis Center
Sun 10:00:13 AM 39.4358 -82.0383 356° North 437 503 32,400 -976 Descending Indianapolis Center
Sun 10:01:15 AM 39.5564 -82.0478 357° North 432 497 31,400 -1,065 Descending Indianapolis Center
Sun 10:02:17 AM 39.6978 -82.0606 356° North 424 488 30,200 -677 Descending Indianapolis Center
Sun 10:03:19 AM 39.8075 -82.0703 356° North 419 482 30,000 -439 Descending Indianapolis Center
Sun 10:04:20 AM 39.9239 -82.0800 356° North 419 482 29,300 -829 Descending Indianapolis Center
Sun 10:05:22 AM 40.0381 -82.0892 356° North 411 473 28,300 -1,065 Descending Indianapolis Center
Sun 10:06:24 AM 40.1503 -82.0994 356° North 402 463 27,100 -1,597 Descending Indianapolis Center
Sun 10:07:26 AM 40.2636 -82.1092 356° North 389 448 25,000 -2,146 Descending Indianapolis Center
Sun 10:08:27 AM 40.3658 -82.1178 356° North 368 423 22,700 -2,538 Descending Indianapolis Center
Sun 10:09:10 AM 40.4486 -82.1192 359° North 361 415 20,600 -2,621 Descending Cleveland Center
Sun 10:10:10 AM 40.5392 -82.0447 32° Northeast 366 421 18,200 -2,200 Descending Cleveland Center
Sun 10:11:10 AM 40.6281 -81.9564 37° Northeast 390 449 16,200 -1,850 Descending Cleveland Center
Sun 10:12:10 AM 40.7039 -81.8814 37° Northeast 390 449 14,500 -1,915 Descending Cleveland Center
Sun 10:12:44 AM 40.7567 -81.8303 36° Northeast 370 426 13,200 -2,000 Descending Cleveland Center
Sun 10:13:10 AM 40.7861 -81.8008 37° Northeast 378 435 12,500 -1,814 Descending Cleveland Center
Sun 10:13:27 AM 40.8114 -81.7792 33° Northeast 348 400 11,900 -1,900 Descending Cleveland Center
Sun 10:14:10 AM 40.8619 -81.7253 39° Northeast 353 406 10,600 -1,107 Descending Cleveland Center
Sun 10:15:10 AM 40.9433 -81.7047 11° North 279 321 10,000 -300 Descending Cleveland Center
Sun 10:16:10 AM 41.0206 -81.6978 North 279 321 10,000 -300 Level Cleveland Center
Sun 10:17:10 AM 41.0936 -81.6989 359° North 262 302 9,400 -900 Descending Cleveland Center
Sun 10:18:10 AM 41.1706 -81.7031 358° North 262 302 8,200 -1,500 Descending Cleveland Center
Sun 10:19:18 AM 41.2539 -81.7128 355° North 250 288 6,200 -1,422 Descending Cleveland Center
Sun 10:20:25 AM 41.3331 -81.7253 353° North 250 288 5,000 -750 Descending Cleveland Center
Sun 10:21:10 AM 41.3667 -81.7008 29° Northeast 230 265 4,800 -545 Descending Cleveland Center
Sun 10:21:31 AM 41.3897 -81.6847 28° Northeast 214 246 4,400 -700 Descending Cleveland Center
Sun 10:22:10 AM 41.4172 -81.6575 37° Northeast 212 244 4,100 -233 Descending Cleveland Center
Sun 10:23:14 AM 41.4753 -81.6667 353° North 182 209 4,000 -432 Descending Cleveland Center
Sun 10:24:15 AM 41.5042 -81.7117 311° West 174 200 3,200 -703 Descending Cleveland Center
Sun 10:25:22 AM 41.4703 -81.7636 229° Southwest 172 198 2,500 -709 Descending Cleveland Center
Sun 10:26:22 AM 41.4428 -81.8019 226° Southwest 116 133 1,700 -694 Descending Cleveland Center
Sun 10:27:23 AM 41.4214 -81.8375 231° Southwest 120 138 1,100 -590 Descending Cleveland Center

Login

Don't have an account? Register now (free) for customized features, flight alerts, and more!